sensor_id;sensor_type;location;lat;lon;timestamp;temperature;humidity
11497;DHT22;5805;51.542;7.230;2024-02-21T00:01:01;11.70;99.90
11497;DHT22;5805;51.542;7.230;2024-02-21T00:03:28;11.70;99.90
11497;DHT22;5805;51.542;7.230;2024-02-21T00:05:53;11.60;99.90
11497;DHT22;5805;51.542;7.230;2024-02-21T00:08:19;11.70;99.90
11497;DHT22;5805;51.542;7.230;2024-02-21T00:10:45;12.00;99.90
11497;DHT22;5805;51.542;7.230;2024-02-21T00:13:11;11.60;99.90
11497;DHT22;5805;51.542;7.230;2024-02-21T00:15:37;11.60;99.90
11497;DHT22;5805;51.542;7.230;2024-02-21T00:18:03;11.60;99.90
11497;DHT22;5805;51.542;7.230;2024-02-21T00:20:30;11.60;99.90
11497;DHT22;5805;51.542;7.230;2024-02-21T00:22:56;11.60;99.90
11497;DHT22;5805;51.542;7.230;2024-02-21T00:25:21;11.50;99.90
11497;DHT22;5805;51.542;7.230;2024-02-21T00:27:47;11.50;99.90
11497;DHT22;5805;51.542;7.230;2024-02-21T00:30:13;11.50;99.90
11497;DHT22;5805;51.542;7.230;2024-02-21T00:32:39;11.50;99.90
11497;DHT22;5805;51.542;7.230;2024-02-21T00:35:05;11.50;99.90
11497;DHT22;5805;51.542;7.230;2024-02-21T00:37:32;11.50;99.90
11497;DHT22;5805;51.542;7.230;2024-02-21T00:39:58;11.60;99.90
11497;DHT22;5805;51.542;7.230;2024-02-21T00:42:24;11.50;99.90
11497;DHT22;5805;51.542;7.230;2024-02-21T00:44:49;11.40;99.90
11497;DHT22;5805;51.542;7.230;2024-02-21T00:47:15;11.40;99.90
11497;DHT22;5805;51.542;7.230;2024-02-21T00:49:41;11.90;99.90
11497;DHT22;5805;51.542;7.230;2024-02-21T00:52:07;11.50;99.90
11497;DHT22;5805;51.542;7.230;2024-02-21T00:54:34;11.50;99.90
11497;DHT22;5805;51.542;7.230;2024-02-21T00:56:59;11.50;99.90
11497;DHT22;5805;51.542;7.230;2024-02-21T00:59:25;11.50;99.90
11497;DHT22;5805;51.542;7.230;2024-02-21T01:01:51;11.50;99.90
11497;DHT22;5805;51.542;7.230;2024-02-21T01:04:16;11.50;99.90
11497;DHT22;5805;51.542;7.230;2024-02-21T01:06:42;11.50;99.90
11497;DHT22;5805;51.542;7.230;2024-02-21T01:09:08;11.40;99.90
11497;DHT22;5805;51.542;7.230;2024-02-21T01:11:35;11.40;99.90
11497;DHT22;5805;51.542;7.230;2024-02-21T01:14:00;11.60;99.90
11497;DHT22;5805;51.542;7.230;2024-02-21T01:16:26;11.40;99.90
11497;DHT22;5805;51.542;7.230;2024-02-21T01:18:55;11.40;99.90
11497;DHT22;5805;51.542;7.230;2024-02-21T01:21:20;11.40;99.90
11497;DHT22;5805;51.542;7.230;2024-02-21T01:23:46;11.40;99.90
11497;DHT22;5805;51.542;7.230;2024-02-21T01:26:12;11.40;99.90
11497;DHT22;5805;51.542;7.230;2024-02-21T01:28:39;11.40;99.90
11497;DHT22;5805;51.542;7.230;2024-02-21T01:31:05;11.40;99.90
11497;DHT22;5805;51.542;7.230;2024-02-21T01:33:31;11.30;99.90
11497;DHT22;5805;51.542;7.230;2024-02-21T01:35:56;11.30;99.90
11497;DHT22;5805;51.542;7.230;2024-02-21T01:38:22;11.60;99.90
11497;DHT22;5805;51.542;7.230;2024-02-21T01:40:48;11.40;99.90
11497;DHT22;5805;51.542;7.230;2024-02-21T01:43:17;11.60;99.90
11497;DHT22;5805;51.542;7.230;2024-02-21T01:45:48;11.10;99.90
11497;DHT22;5805;51.542;7.230;2024-02-21T01:48:14;11.20;99.90
11497;DHT22;5805;51.542;7.230;2024-02-21T01:50:40;11.20;99.90
11497;DHT22;5805;51.542;7.230;2024-02-21T01:53:06;11.20;99.90
11497;DHT22;5805;51.542;7.230;2024-02-21T01:55:33;11.60;99.90
11497;DHT22;5805;51.542;7.230;2024-02-21T01:57:58;11.20;99.90
11497;DHT22;5805;51.542;7.230;2024-02-21T02:00:24;11.30;99.90
11497;DHT22;5805;51.542;7.230;2024-02-21T02:02:52;11.30;99.90
11497;DHT22;5805;51.542;7.230;2024-02-21T02:05:18;11.30;99.90
11497;DHT22;5805;51.542;7.230;2024-02-21T02:07:44;11.30;99.90
11497;DHT22;5805;51.542;7.230;2024-02-21T02:10:09;11.20;99.90
11497;DHT22;5805;51.542;7.230;2024-02-21T02:12:36;11.40;99.90
11497;DHT22;5805;51.542;7.230;2024-02-21T02:15:03;11.30;99.90
11497;DHT22;5805;51.542;7.230;2024-02-21T02:17:28;11.30;99.90
11497;DHT22;5805;51.542;7.230;2024-02-21T02:19:55;11.30;99.90
11497;DHT22;5805;51.542;7.230;2024-02-21T02:22:23;11.30;99.90
11497;DHT22;5805;51.542;7.230;2024-02-21T02:24:52;11.30;99.90
11497;DHT22;5805;51.542;7.230;2024-02-21T02:27:18;11.30;99.90
11497;DHT22;5805;51.542;7.230;2024-02-21T02:29:44;11.40;99.90
11497;DHT22;5805;51.542;7.230;2024-02-21T02:32:10;11.30;99.90
11497;DHT22;5805;51.542;7.230;2024-02-21T02:34:36;11.70;99.90
11497;DHT22;5805;51.542;7.230;2024-02-21T02:37:02;11.30;99.90
11497;DHT22;5805;51.542;7.230;2024-02-21T02:39:28;11.30;99.90
11497;DHT22;5805;51.542;7.230;2024-02-21T02:41:55;11.20;99.90
11497;DHT22;5805;51.542;7.230;2024-02-21T02:44:21;11.20;99.90
11497;DHT22;5805;51.542;7.230;2024-02-21T02:46:46;11.20;99.90
11497;DHT22;5805;51.542;7.230;2024-02-21T02:49:12;11.10;99.90
11497;DHT22;5805;51.542;7.230;2024-02-21T02:51:41;11.10;99.90
11497;DHT22;5805;51.542;7.230;2024-02-21T02:54:07;11.10;99.90
11497;DHT22;5805;51.542;7.230;2024-02-21T02:56:32;11.10;99.90
11497;DHT22;5805;51.542;7.230;2024-02-21T02:58:59;11.00;99.90
11497;DHT22;5805;51.542;7.230;2024-02-21T03:01:25;11.10;99.90
11497;DHT22;5805;51.542;7.230;2024-02-21T03:03:51;11.00;99.90
11497;DHT22;5805;51.542;7.230;2024-02-21T03:06:17;11.10;99.90
11497;DHT22;5805;51.542;7.230;2024-02-21T03:08:42;11.00;99.90
11497;DHT22;5805;51.542;7.230;2024-02-21T03:11:08;11.00;99.90
11497;DHT22;5805;51.542;7.230;2024-02-21T03:13:34;11.10;99.90
11497;DHT22;5805;51.542;7.230;2024-02-21T03:16:01;11.10;99.90
11497;DHT22;5805;51.542;7.230;2024-02-21T03:18:27;11.10;99.90
11497;DHT22;5805;51.542;7.230;2024-02-21T03:20:52;11.20;99.90
11497;DHT22;5805;51.542;7.230;2024-02-21T03:23:18;11.10;99.90
11497;DHT22;5805;51.542;7.230;2024-02-21T03:25:44;11.20;99.90
11497;DHT22;5805;51.542;7.230;2024-02-21T03:28:09;11.10;99.90
11497;DHT22;5805;51.542;7.230;2024-02-21T03:30:35;11.30;99.90
11497;DHT22;5805;51.542;7.230;2024-02-21T03:33:03;11.20;99.90
11497;DHT22;5805;51.542;7.230;2024-02-21T03:35:28;11.20;99.90
11497;DHT22;5805;51.542;7.230;2024-02-21T03:37:54;11.40;99.90
11497;DHT22;5805;51.542;7.230;2024-02-21T03:40:20;11.20;99.90
11497;DHT22;5805;51.542;7.230;2024-02-21T03:42:46;11.20;99.90
11497;DHT22;5805;51.542;7.230;2024-02-21T03:45:11;11.30;99.90
11497;DHT22;5805;51.542;7.230;2024-02-21T03:47:37;11.50;99.90
11497;DHT22;5805;51.542;7.230;2024-02-21T03:50:05;11.40;99.90
11497;DHT22;5805;51.542;7.230;2024-02-21T03:52:31;11.30;99.90
11497;DHT22;5805;51.542;7.230;2024-02-21T03:54:56;11.30;99.90
11497;DHT22;5805;51.542;7.230;2024-02-21T03:57:22;11.30;99.90
11497;DHT22;5805;51.542;7.230;2024-02-21T03:59:50;11.30;99.90
11497;DHT22;5805;51.542;7.230;2024-02-21T04:02:16;11.30;99.90
11497;DHT22;5805;51.542;7.230;2024-02-21T04:04:43;11.40;99.90
11497;DHT22;5805;51.542;7.230;2024-02-21T04:07:10;11.30;99.90
11497;DHT22;5805;51.542;7.230;2024-02-21T04:09:36;11.30;99.90
11497;DHT22;5805;51.542;7.230;2024-02-21T04:12:01;11.30;99.90
11497;DHT22;5805;51.542;7.230;2024-02-21T04:14:27;11.30;99.90
11497;DHT22;5805;51.542;7.230;2024-02-21T04:16:53;11.30;99.90
11497;DHT22;5805;51.542;7.230;2024-02-21T04:19:18;11.30;99.90
11497;DHT22;5805;51.542;7.230;2024-02-21T04:21:44;11.30;99.90
11497;DHT22;5805;51.542;7.230;2024-02-21T04:24:11;11.90;99.90
11497;DHT22;5805;51.542;7.230;2024-02-21T04:26:37;11.30;99.90
11497;DHT22;5805;51.542;7.230;2024-02-21T04:29:03;11.30;99.90
11497;DHT22;5805;51.542;7.230;2024-02-21T04:31:28;11.30;99.90
11497;DHT22;5805;51.542;7.230;2024-02-21T04:33:54;11.40;99.90
11497;DHT22;5805;51.542;7.230;2024-02-21T04:36:20;11.40;99.90
11497;DHT22;5805;51.542;7.230;2024-02-21T04:38:45;11.80;99.90
11497;DHT22;5805;51.542;7.230;2024-02-21T04:41:13;11.30;99.90
11497;DHT22;5805;51.542;7.230;2024-02-21T04:43:38;11.40;99.90
11497;DHT22;5805;51.542;7.230;2024-02-21T04:46:04;11.30;99.90
11497;DHT22;5805;51.542;7.230;2024-02-21T04:48:30;11.30;99.90
11497;DHT22;5805;51.542;7.230;2024-02-21T04:50:56;11.30;99.90
11497;DHT22;5805;51.542;7.230;2024-02-21T04:53:21;11.20;99.90
11497;DHT22;5805;51.542;7.230;2024-02-21T04:55:47;11.30;99.90
11497;DHT22;5805;51.542;7.230;2024-02-21T04:58:14;11.20;99.90
11497;DHT22;5805;51.542;7.230;2024-02-21T05:00:40;11.20;99.90
11497;DHT22;5805;51.542;7.230;2024-02-21T05:03:05;11.20;99.90
11497;DHT22;5805;51.542;7.230;2024-02-21T05:05:31;11.20;99.90
11497;DHT22;5805;51.542;7.230;2024-02-21T05:07:57;11.60;99.90
11497;DHT22;5805;51.542;7.230;2024-02-21T05:10:22;11.30;99.90
11497;DHT22;5805;51.542;7.230;2024-02-21T05:12:48;11.30;99.90
11497;DHT22;5805;51.542;7.230;2024-02-21T05:15:15;11.30;99.90
11497;DHT22;5805;51.542;7.230;2024-02-21T05:17:41;11.30;99.90
11497;DHT22;5805;51.542;7.230;2024-02-21T05:20:07;11.30;99.90
11497;DHT22;5805;51.542;7.230;2024-02-21T05:22:33;11.30;99.90
11497;DHT22;5805;51.542;7.230;2024-02-21T05:24:59;11.30;99.90
11497;DHT22;5805;51.542;7.230;2024-02-21T05:27:24;11.30;99.90
11497;DHT22;5805;51.542;7.230;2024-02-21T05:29:50;11.30;99.90
11497;DHT22;5805;51.542;7.230;2024-02-21T05:32:17;11.30;99.90
11497;DHT22;5805;51.542;7.230;2024-02-21T05:34:43;11.30;99.90
11497;DHT22;5805;51.542;7.230;2024-02-21T05:37:08;11.30;99.90
11497;DHT22;5805;51.542;7.230;2024-02-21T05:39:34;11.60;99.90
11497;DHT22;5805;51.542;7.230;2024-02-21T05:42:00;11.40;99.90
11497;DHT22;5805;51.542;7.230;2024-02-21T05:44:25;11.40;99.90
11497;DHT22;5805;51.542;7.230;2024-02-21T05:46:51;11.40;99.90
11497;DHT22;5805;51.542;7.230;2024-02-21T05:49:18;11.40;99.90
11497;DHT22;5805;51.542;7.230;2024-02-21T05:51:44;11.30;99.90
11497;DHT22;5805;51.542;7.230;2024-02-21T05:54:09;11.30;99.90
11497;DHT22;5805;51.542;7.230;2024-02-21T05:56:35;11.40;99.90
11497;DHT22;5805;51.542;7.230;2024-02-21T05:59:01;11.30;99.90
11497;DHT22;5805;51.542;7.230;2024-02-21T06:01:27;11.30;99.90
11497;DHT22;5805;51.542;7.230;2024-02-21T06:03:53;11.30;99.90
11497;DHT22;5805;51.542;7.230;2024-02-21T06:06:20;11.30;99.90
11497;DHT22;5805;51.542;7.230;2024-02-21T06:08:46;11.30;99.90
11497;DHT22;5805;51.542;7.230;2024-02-21T06:11:11;11.30;99.90
11497;DHT22;5805;51.542;7.230;2024-02-21T06:13:38;11.40;99.90
11497;DHT22;5805;51.542;7.230;2024-02-21T06:16:05;11.30;99.90
11497;DHT22;5805;51.542;7.230;2024-02-21T06:18:31;11.30;99.90
11497;DHT22;5805;51.542;7.230;2024-02-21T06:20:57;11.30;99.90
11497;DHT22;5805;51.542;7.230;2024-02-21T06:23:24;11.30;99.90
11497;DHT22;5805;51.542;7.230;2024-02-21T06:25:50;11.40;99.90
11497;DHT22;5805;51.542;7.230;2024-02-21T06:28:15;11.30;99.90
11497;DHT22;5805;51.542;7.230;2024-02-21T06:30:41;11.30;99.90
11497;DHT22;5805;51.542;7.230;2024-02-21T06:33:07;11.30;99.90
11497;DHT22;5805;51.542;7.230;2024-02-21T06:35:32;11.30;99.90
11497;DHT22;5805;51.542;7.230;2024-02-21T06:37:58;11.80;99.90
11497;DHT22;5805;51.542;7.230;2024-02-21T06:40:25;11.70;99.90
11497;DHT22;5805;51.542;7.230;2024-02-21T06:42:51;11.30;99.90
11497;DHT22;5805;51.542;7.230;2024-02-21T06:45:17;11.30;99.90
11497;DHT22;5805;51.542;7.230;2024-02-21T06:47:43;11.30;99.90
11497;DHT22;5805;51.542;7.230;2024-02-21T06:50:09;11.30;99.90
11497;DHT22;5805;51.542;7.230;2024-02-21T06:52:35;11.30;99.90
11497;DHT22;5805;51.542;7.230;2024-02-21T06:55:00;11.30;99.90
11497;DHT22;5805;51.542;7.230;2024-02-21T06:57:28;11.70;99.90
11497;DHT22;5805;51.542;7.230;2024-02-21T06:59:54;11.50;99.90
11497;DHT22;5805;51.542;7.230;2024-02-21T07:02:20;11.50;99.90
11497;DHT22;5805;51.542;7.230;2024-02-21T07:04:46;11.40;99.90
11497;DHT22;5805;51.542;7.230;2024-02-21T07:07:11;11.40;99.90
11497;DHT22;5805;51.542;7.230;2024-02-21T07:09:37;11.40;99.90
11497;DHT22;5805;51.542;7.230;2024-02-21T07:12:03;11.40;99.90
11497;DHT22;5805;51.542;7.230;2024-02-21T07:14:32;11.40;99.90
11497;DHT22;5805;51.542;7.230;2024-02-21T07:16:57;11.40;99.90
11497;DHT22;5805;51.542;7.230;2024-02-21T07:19:23;11.40;99.90
11497;DHT22;5805;51.542;7.230;2024-02-21T07:21:49;11.70;99.90
11497;DHT22;5805;51.542;7.230;2024-02-21T07:24:15;11.50;99.90
11497;DHT22;5805;51.542;7.230;2024-02-21T07:26:41;11.50;99.90
11497;DHT22;5805;51.542;7.230;2024-02-21T07:29:07;11.50;99.90
11497;DHT22;5805;51.542;7.230;2024-02-21T07:31:40;11.50;99.90
11497;DHT22;5805;51.542;7.230;2024-02-21T07:34:06;11.60;99.90
11497;DHT22;5805;51.542;7.230;2024-02-21T07:36:32;11.70;99.90
11497;DHT22;5805;51.542;7.230;2024-02-21T07:38:57;11.70;99.90
11497;DHT22;5805;51.542;7.230;2024-02-21T07:41:23;11.70;99.90
11497;DHT22;5805;51.542;7.230;2024-02-21T07:43:49;11.60;99.90
11497;DHT22;5805;51.542;7.230;2024-02-21T07:46:14;11.70;99.90
11497;DHT22;5805;51.542;7.230;2024-02-21T07:48:41;11.70;99.90
11497;DHT22;5805;51.542;7.230;2024-02-21T07:51:07;11.80;99.90
11497;DHT22;5805;51.542;7.230;2024-02-21T07:53:33;11.80;99.90
11497;DHT22;5805;51.542;7.230;2024-02-21T07:55:59;11.80;99.90
11497;DHT22;5805;51.542;7.230;2024-02-21T07:58:25;11.80;99.90
11497;DHT22;5805;51.542;7.230;2024-02-21T08:00:50;11.80;99.90
11497;DHT22;5805;51.542;7.230;2024-02-21T08:03:16;12.10;99.90
11497;DHT22;5805;51.542;7.230;2024-02-21T08:05:43;12.00;99.90
11497;DHT22;5805;51.542;7.230;2024-02-21T08:08:09;12.00;99.90
11497;DHT22;5805;51.542;7.230;2024-02-21T08:10:35;12.00;99.90
11497;DHT22;5805;51.542;7.230;2024-02-21T08:13:00;12.00;99.90
11497;DHT22;5805;51.542;7.230;2024-02-21T08:15:26;11.90;99.90
11497;DHT22;5805;51.542;7.230;2024-02-21T08:17:52;12.40;99.90
11497;DHT22;5805;51.542;7.230;2024-02-21T08:20:20;12.00;99.90
11497;DHT22;5805;51.542;7.230;2024-02-21T08:22:47;12.00;99.90
11497;DHT22;5805;51.542;7.230;2024-02-21T08:25:12;12.00;99.90
11497;DHT22;5805;51.542;7.230;2024-02-21T08:27:38;12.10;99.90
11497;DHT22;5805;51.542;7.230;2024-02-21T08:30:05;12.10;99.90
11497;DHT22;5805;51.542;7.230;2024-02-21T08:32:30;12.20;99.90
11497;DHT22;5805;51.542;7.230;2024-02-21T08:34:56;12.20;99.90
11497;DHT22;5805;51.542;7.230;2024-02-21T08:37:22;12.30;99.90
11497;DHT22;5805;51.542;7.230;2024-02-21T08:39:49;12.40;99.90
11497;DHT22;5805;51.542;7.230;2024-02-21T08:42:14;12.40;99.90
11497;DHT22;5805;51.542;7.230;2024-02-21T08:44:40;12.50;99.90
11497;DHT22;5805;51.542;7.230;2024-02-21T08:47:06;12.50;99.90
11497;DHT22;5805;51.542;7.230;2024-02-21T08:49:32;12.60;99.90
11497;DHT22;5805;51.542;7.230;2024-02-21T08:51:57;12.60;99.90
11497;DHT22;5805;51.542;7.230;2024-02-21T08:54:23;12.50;99.90
11497;DHT22;5805;51.542;7.230;2024-02-21T08:56:50;12.60;99.90
11497;DHT22;5805;51.542;7.230;2024-02-21T08:59:16;12.60;99.90
11497;DHT22;5805;51.542;7.230;2024-02-21T09:01:42;12.90;99.90
11497;DHT22;5805;51.542;7.230;2024-02-21T09:04:07;12.70;99.90
11497;DHT22;5805;51.542;7.230;2024-02-21T09:06:33;12.80;99.90
11497;DHT22;5805;51.542;7.230;2024-02-21T09:08:59;12.70;99.90
11497;DHT22;5805;51.542;7.230;2024-02-21T09:11:24;12.80;99.90
11497;DHT22;5805;51.542;7.230;2024-02-21T09:13:51;12.90;99.90
11497;DHT22;5805;51.542;7.230;2024-02-21T09:16:17;12.80;99.90
11497;DHT22;5805;51.542;7.230;2024-02-21T09:18:44;12.80;99.90
11497;DHT22;5805;51.542;7.230;2024-02-21T09:21:10;12.80;99.90
11497;DHT22;5805;51.542;7.230;2024-02-21T09:23:35;12.70;99.90
11497;DHT22;5805;51.542;7.230;2024-02-21T09:26:01;12.70;99.90
11497;DHT22;5805;51.542;7.230;2024-02-21T09:28:27;12.50;99.90
11497;DHT22;5805;51.542;7.230;2024-02-21T09:30:56;12.40;99.90
11497;DHT22;5805;51.542;7.230;2024-02-21T09:33:22;12.30;99.90
11497;DHT22;5805;51.542;7.230;2024-02-21T09:35:48;12.30;99.90
11497;DHT22;5805;51.542;7.230;2024-02-21T09:38:13;12.20;99.90
11497;DHT22;5805;51.542;7.230;2024-02-21T09:40:39;12.20;99.90
11497;DHT22;5805;51.542;7.230;2024-02-21T09:43:05;12.20;99.90
11497;DHT22;5805;51.542;7.230;2024-02-21T09:45:31;12.10;99.90
11497;DHT22;5805;51.542;7.230;2024-02-21T09:48:15;12.10;99.90
11497;DHT22;5805;51.542;7.230;2024-02-21T09:50:46;12.10;99.90
11497;DHT22;5805;51.542;7.230;2024-02-21T09:53:12;12.10;99.90
11497;DHT22;5805;51.542;7.230;2024-02-21T09:55:38;12.10;99.90
11497;DHT22;5805;51.542;7.230;2024-02-21T09:58:05;12.10;99.90
11497;DHT22;5805;51.542;7.230;2024-02-21T10:00:31;12.10;99.90
11497;DHT22;5805;51.542;7.230;2024-02-21T10:02:57;12.10;99.90
11497;DHT22;5805;51.542;7.230;2024-02-21T10:05:25;12.10;99.90
11497;DHT22;5805;51.542;7.230;2024-02-21T10:07:51;12.50;99.90
11497;DHT22;5805;51.542;7.230;2024-02-21T10:10:17;12.00;99.90
11497;DHT22;5805;51.542;7.230;2024-02-21T10:12:49;12.00;99.90
11497;DHT22;5805;51.542;7.230;2024-02-21T10:15:19;12.10;99.90
11497;DHT22;5805;51.542;7.230;2024-02-21T10:17:45;12.20;99.90
11497;DHT22;5805;51.542;7.230;2024-02-21T10:20:12;12.30;99.90
11497;DHT22;5805;51.542;7.230;2024-02-21T10:22:39;12.40;99.90
11497;DHT22;5805;51.542;7.230;2024-02-21T10:25:08;12.40;99.90
11497;DHT22;5805;51.542;7.230;2024-02-21T10:27:34;12.40;99.90
11497;DHT22;5805;51.542;7.230;2024-02-21T10:30:00;12.50;99.90
11497;DHT22;5805;51.542;7.230;2024-02-21T10:32:26;12.60;99.90
11497;DHT22;5805;51.542;7.230;2024-02-21T10:35:01;12.70;99.90
11497;DHT22;5805;51.542;7.230;2024-02-21T10:37:26;12.90;99.90
11497;DHT22;5805;51.542;7.230;2024-02-21T10:39:54;13.40;99.90
11497;DHT22;5805;51.542;7.230;2024-02-21T10:42:21;13.20;99.90
11497;DHT22;5805;51.542;7.230;2024-02-21T10:44:51;13.30;99.90
11497;DHT22;5805;51.542;7.230;2024-02-21T10:47:17;13.40;99.90
11497;DHT22;5805;51.542;7.230;2024-02-21T10:49:44;13.20;99.90
11497;DHT22;5805;51.542;7.230;2024-02-21T10:52:14;13.20;99.90
11497;DHT22;5805;51.542;7.230;2024-02-21T10:54:44;13.60;99.90
11497;DHT22;5805;51.542;7.230;2024-02-21T10:57:13;13.00;99.90
11497;DHT22;5805;51.542;7.230;2024-02-21T10:59:40;12.90;99.90
11497;DHT22;5805;51.542;7.230;2024-02-21T11:02:05;13.10;99.90
11497;DHT22;5805;51.542;7.230;2024-02-21T11:04:32;13.00;99.90
11497;DHT22;5805;51.542;7.230;2024-02-21T11:06:58;13.10;99.90
11497;DHT22;5805;51.542;7.230;2024-02-21T11:09:30;13.20;99.90
11497;DHT22;5805;51.542;7.230;2024-02-21T11:11:56;13.40;99.20
11497;DHT22;5805;51.542;7.230;2024-02-21T11:14:27;13.30;99.10
11497;DHT22;5805;51.542;7.230;2024-02-21T11:16:52;13.50;99.00
11497;DHT22;5805;51.542;7.230;2024-02-21T11:19:22;13.70;98.80
11497;DHT22;5805;51.542;7.230;2024-02-21T11:21:48;13.80;97.50
11497;DHT22;5805;51.542;7.230;2024-02-21T11:24:14;13.80;97.20
11497;DHT22;5805;51.542;7.230;2024-02-21T11:26:50;13.90;96.90
11497;DHT22;5805;51.542;7.230;2024-02-21T11:29:24;14.10;95.80
11497;DHT22;5805;51.542;7.230;2024-02-21T11:31:50;13.80;95.60
11497;DHT22;5805;51.542;7.230;2024-02-21T11:34:18;13.90;95.70
11497;DHT22;5805;51.542;7.230;2024-02-21T11:36:48;13.90;95.60
11497;DHT22;5805;51.542;7.230;2024-02-21T11:39:21;13.80;95.40
11497;DHT22;5805;51.542;7.230;2024-02-21T11:41:47;13.90;96.00
11497;DHT22;5805;51.542;7.230;2024-02-21T11:44:13;13.80;96.00
11497;DHT22;5805;51.542;7.230;2024-02-21T11:46:40;13.90;95.80
11497;DHT22;5805;51.542;7.230;2024-02-21T11:49:06;14.00;95.10
11497;DHT22;5805;51.542;7.230;2024-02-21T11:51:32;14.10;95.30
11497;DHT22;5805;51.542;7.230;2024-02-21T11:53:57;14.10;95.10
11497;DHT22;5805;51.542;7.230;2024-02-21T11:56:23;14.10;95.20
11497;DHT22;5805;51.542;7.230;2024-02-21T11:58:49;14.10;95.20
11497;DHT22;5805;51.542;7.230;2024-02-21T12:01:15;14.10;95.00
11497;DHT22;5805;51.542;7.230;2024-02-21T12:03:42;14.10;94.40
11497;DHT22;5805;51.542;7.230;2024-02-21T12:06:08;14.00;93.40
11497;DHT22;5805;51.542;7.230;2024-02-21T12:08:41;14.00;93.90
11497;DHT22;5805;51.542;7.230;2024-02-21T12:11:16;14.00;93.50
11497;DHT22;5805;51.542;7.230;2024-02-21T12:13:42;14.10;94.40
11497;DHT22;5805;51.542;7.230;2024-02-21T12:16:07;14.20;94.10
11497;DHT22;5805;51.542;7.230;2024-02-21T12:18:33;14.30;93.70
11497;DHT22;5805;51.542;7.230;2024-02-21T12:21:00;14.30;92.40
11497;DHT22;5805;51.542;7.230;2024-02-21T12:23:27;14.40;92.20
11497;DHT22;5805;51.542;7.230;2024-02-21T12:25:52;14.30;90.90
11497;DHT22;5805;51.542;7.230;2024-02-21T12:28:18;14.20;91.40
11497;DHT22;5805;51.542;7.230;2024-02-21T12:30:44;14.20;91.70
11497;DHT22;5805;51.542;7.230;2024-02-21T12:33:09;14.20;91.20
11497;DHT22;5805;51.542;7.230;2024-02-21T12:35:35;14.30;91.60
11497;DHT22;5805;51.542;7.230;2024-02-21T12:38:02;14.20;90.90
11497;DHT22;5805;51.542;7.230;2024-02-21T12:40:28;14.20;90.60
11497;DHT22;5805;51.542;7.230;2024-02-21T12:42:54;14.20;89.90
11497;DHT22;5805;51.542;7.230;2024-02-21T12:45:19;14.10;90.30
11497;DHT22;5805;51.542;7.230;2024-02-21T12:47:45;14.20;90.00
11497;DHT22;5805;51.542;7.230;2024-02-21T12:50:11;14.20;90.30
11497;DHT22;5805;51.542;7.230;2024-02-21T12:52:36;14.20;90.40
11497;DHT22;5805;51.542;7.230;2024-02-21T12:55:05;14.40;90.60
11497;DHT22;5805;51.542;7.230;2024-02-21T12:57:30;14.50;88.20
11497;DHT22;5805;51.542;7.230;2024-02-21T12:59:56;14.50;87.50
11497;DHT22;5805;51.542;7.230;2024-02-21T13:02:22;14.50;86.10
11497;DHT22;5805;51.542;7.230;2024-02-21T13:04:47;14.60;87.00
11497;DHT22;5805;51.542;7.230;2024-02-21T13:07:13;14.60;85.20
11497;DHT22;5805;51.542;7.230;2024-02-21T13:09:39;14.60;84.40
11497;DHT22;5805;51.542;7.230;2024-02-21T13:12:06;14.60;83.40
11497;DHT22;5805;51.542;7.230;2024-02-21T13:14:32;14.70;84.50
11497;DHT22;5805;51.542;7.230;2024-02-21T13:16:58;14.70;84.80
11497;DHT22;5805;51.542;7.230;2024-02-21T13:19:23;14.90;85.40
11497;DHT22;5805;51.542;7.230;2024-02-21T13:21:49;14.90;83.70
11497;DHT22;5805;51.542;7.230;2024-02-21T13:24:15;15.00;82.00
11497;DHT22;5805;51.542;7.230;2024-02-21T13:26:40;15.00;81.70
11497;DHT22;5805;51.542;7.230;2024-02-21T13:29:07;15.10;83.20
11497;DHT22;5805;51.542;7.230;2024-02-21T13:31:33;15.10;79.70
11497;DHT22;5805;51.542;7.230;2024-02-21T13:33:59;15.10;79.00
11497;DHT22;5805;51.542;7.230;2024-02-21T13:36:24;15.00;78.90
11497;DHT22;5805;51.542;7.230;2024-02-21T13:38:50;14.90;78.70
11497;DHT22;5805;51.542;7.230;2024-02-21T13:41:16;15.00;79.40
11497;DHT22;5805;51.542;7.230;2024-02-21T13:43:41;15.00;79.30
11497;DHT22;5805;51.542;7.230;2024-02-21T13:46:08;15.10;78.90
11497;DHT22;5805;51.542;7.230;2024-02-21T13:48:34;15.10;78.40
11497;DHT22;5805;51.542;7.230;2024-02-21T13:51:00;15.10;78.10
11497;DHT22;5805;51.542;7.230;2024-02-21T13:53:25;15.00;77.50
11497;DHT22;5805;51.542;7.230;2024-02-21T13:55:51;15.00;78.20
11497;DHT22;5805;51.542;7.230;2024-02-21T13:58:17;14.90;77.20
11497;DHT22;5805;51.542;7.230;2024-02-21T14:00:42;14.90;77.50
11497;DHT22;5805;51.542;7.230;2024-02-21T14:03:10;14.80;78.70
11497;DHT22;5805;51.542;7.230;2024-02-21T14:05:35;14.80;80.00
11497;DHT22;5805;51.542;7.230;2024-02-21T14:08:01;14.80;78.50
11497;DHT22;5805;51.542;7.230;2024-02-21T14:10:27;14.70;79.30
11497;DHT22;5805;51.542;7.230;2024-02-21T14:12:52;14.60;79.20
11497;DHT22;5805;51.542;7.230;2024-02-21T14:15:18;14.60;79.10
11497;DHT22;5805;51.542;7.230;2024-02-21T14:17:44;14.60;80.40
11497;DHT22;5805;51.542;7.230;2024-02-21T14:20:11;14.60;81.10
11497;DHT22;5805;51.542;7.230;2024-02-21T14:22:37;14.50;79.50
11497;DHT22;5805;51.542;7.230;2024-02-21T14:25:03;14.50;79.40
11497;DHT22;5805;51.542;7.230;2024-02-21T14:27:29;14.40;79.90
11497;DHT22;5805;51.542;7.230;2024-02-21T14:29:55;14.50;80.30
11497;DHT22;5805;51.542;7.230;2024-02-21T14:32:20;14.40;80.40
11497;DHT22;5805;51.542;7.230;2024-02-21T14:34:46;14.40;80.30
11497;DHT22;5805;51.542;7.230;2024-02-21T14:37:13;14.40;81.30
11497;DHT22;5805;51.542;7.230;2024-02-21T14:39:39;14.50;81.70
11497;DHT22;5805;51.542;7.230;2024-02-21T14:42:05;14.50;82.50
11497;DHT22;5805;51.542;7.230;2024-02-21T14:44:30;14.50;81.50
11497;DHT22;5805;51.542;7.230;2024-02-21T14:46:56;14.50;81.20
11497;DHT22;5805;51.542;7.230;2024-02-21T14:49:22;14.40;80.80
11497;DHT22;5805;51.542;7.230;2024-02-21T14:51:47;14.40;81.50
11497;DHT22;5805;51.542;7.230;2024-02-21T14:54:15;14.30;81.20
11497;DHT22;5805;51.542;7.230;2024-02-21T14:56:40;14.30;80.30
11497;DHT22;5805;51.542;7.230;2024-02-21T14:59:06;14.20;80.40
11497;DHT22;5805;51.542;7.230;2024-02-21T15:01:36;14.10;82.00
11497;DHT22;5805;51.542;7.230;2024-02-21T15:04:01;14.10;83.50
11497;DHT22;5805;51.542;7.230;2024-02-21T15:06:27;14.10;82.90
11497;DHT22;5805;51.542;7.230;2024-02-21T15:08:53;14.10;81.40
11497;DHT22;5805;51.542;7.230;2024-02-21T15:11:20;14.00;81.40
11497;DHT22;5805;51.542;7.230;2024-02-21T15:13:45;14.00;82.20
11497;DHT22;5805;51.542;7.230;2024-02-21T15:16:11;14.00;82.60
11497;DHT22;5805;51.542;7.230;2024-02-21T15:18:37;14.00;83.10
11497;DHT22;5805;51.542;7.230;2024-02-21T15:21:03;14.00;83.50
11497;DHT22;5805;51.542;7.230;2024-02-21T15:23:29;14.00;83.80
11497;DHT22;5805;51.542;7.230;2024-02-21T15:25:54;14.00;84.40
11497;DHT22;5805;51.542;7.230;2024-02-21T15:28:21;14.00;85.40
11497;DHT22;5805;51.542;7.230;2024-02-21T15:30:47;14.00;85.50
11497;DHT22;5805;51.542;7.230;2024-02-21T15:33:13;13.90;85.10
11497;DHT22;5805;51.542;7.230;2024-02-21T15:35:38;13.80;86.10
11497;DHT22;5805;51.542;7.230;2024-02-21T15:38:04;13.80;86.40